createdAt,value
2024-05-09T00:00:54.886Z,46.44
2024-05-09T00:03:44.602Z,46.69
2024-05-09T00:06:16.275Z,46.74
2024-05-09T00:08:47.019Z,46.82
2024-05-09T00:11:20.940Z,47.22
2024-05-09T00:13:51.877Z,47.12
2024-05-09T00:16:23.087Z,47.09
2024-05-09T00:18:56.432Z,47.22
2024-05-09T00:21:27.774Z,47.57
2024-05-09T00:23:58.517Z,47.17
2024-05-09T00:26:32.364Z,47.25
2024-05-09T00:29:03.214Z,47.61
2024-05-09T00:31:34.298Z,47.33
2024-05-09T00:34:06.137Z,47.58
2024-05-09T00:36:37.211Z,47.81
2024-05-09T00:39:07.866Z,48.45
2024-05-09T00:41:41.707Z,48.04
2024-05-09T00:44:12.439Z,48.07
2024-05-09T00:46:44.525Z,48.39
2024-05-09T00:49:16.238Z,49.17
2024-05-09T00:51:48.529Z,48.77
2024-05-09T00:54:20.110Z,49.20
2024-05-09T00:56:55.687Z,49.50
2024-05-09T00:59:27.958Z,49.43
2024-05-09T01:02:01.345Z,49.24
2024-05-09T01:04:32.187Z,49.52
2024-05-09T01:07:03.586Z,49.31
2024-05-09T01:09:34.322Z,50.10
2024-05-09T01:12:09.480Z,49.72
2024-05-09T01:14:40.354Z,49.68
2024-05-09T01:17:11.589Z,50.02
2024-05-09T01:19:42.699Z,50.32
2024-05-09T01:22:13.981Z,50.06
2024-05-09T01:24:47.223Z,50.31
2024-05-09T01:27:18.316Z,51.08
2024-05-09T01:29:49.168Z,51.00
2024-05-09T01:32:20.269Z,51.11
2024-05-09T01:34:51.119Z,51.16
2024-05-09T01:37:22.266Z,51.27
2024-05-09T01:39:55.672Z,51.13
2024-05-09T01:42:26.773Z,52.01
2024-05-09T01:44:57.419Z,51.52
2024-05-09T01:47:28.693Z,51.23
2024-05-09T01:49:59.430Z,52.06
2024-05-09T01:52:30.719Z,52.08
2024-05-09T01:55:06.740Z,52.42
2024-05-09T01:57:38.067Z,52.57
2024-05-09T02:00:15.588Z,52.72
2024-05-09T02:02:48.078Z,52.16
2024-05-09T02:05:19.166Z,52.58
2024-05-09T02:07:50.368Z,52.76
2024-05-09T02:10:31.670Z,52.79
2024-05-09T02:13:03.996Z,53.36
2024-05-09T02:15:34.636Z,53.58
2024-05-09T02:18:06.413Z,53.48
2024-05-09T02:20:41.755Z,53.81
2024-05-09T02:23:13.989Z,54.14
2024-05-09T02:25:47.573Z,54.45
2024-05-09T02:28:18.676Z,54.37
2024-05-09T02:30:49.355Z,54.31
2024-05-09T02:33:17.924Z,54.96
2024-05-09T02:35:48.647Z,54.81
2024-05-09T02:38:17.354Z,54.85
2024-05-09T02:40:50.709Z,55.21
2024-05-09T02:43:19.199Z,55.25
2024-05-09T02:45:49.900Z,55.13
2024-05-09T02:48:18.658Z,55.23
2024-05-09T02:50:49.517Z,55.40
2024-05-09T02:53:22.547Z,55.35
2024-05-09T02:55:53.416Z,55.33
2024-05-09T02:58:24.549Z,55.60
2024-05-09T03:00:52.713Z,55.92
2024-05-09T03:03:24.253Z,56.04
2024-05-09T03:05:52.742Z,56.17
2024-05-09T03:08:23.833Z,55.92
2024-05-09T03:10:57.299Z,56.58
2024-05-09T03:13:25.891Z,56.15
2024-05-09T03:15:56.505Z,56.50
2024-05-09T03:18:25.198Z,56.23
2024-05-09T03:20:56.011Z,56.83
2024-05-09T03:23:24.530Z,57.30
2024-05-09T03:25:57.930Z,57.46
2024-05-09T03:28:26.401Z,56.91
2024-05-09T03:30:57.092Z,57.27
2024-05-09T03:33:25.810Z,57.56
2024-05-09T03:35:56.890Z,57.58
2024-05-09T03:38:28.072Z,57.74
2024-05-09T03:41:01.489Z,57.19
2024-05-09T03:43:32.623Z,57.12
2024-05-09T03:46:00.716Z,57.23
2024-05-09T03:48:31.945Z,58.05
2024-05-09T03:51:00.195Z,57.53
2024-05-09T03:53:31.531Z,57.72
2024-05-09T03:56:08.202Z,57.30
2024-05-09T03:58:39.404Z,57.38
2024-05-09T04:01:07.543Z,57.49
2024-05-09T04:06:07.707Z,56.94
2024-05-09T04:08:39.009Z,57.57
2024-05-09T04:11:10.265Z,57.12
2024-05-09T04:13:41.378Z,57.01
2024-05-09T04:16:11.568Z,56.71
2024-05-09T04:18:43.158Z,56.45
2024-05-09T04:21:11.370Z,55.34
2024-05-09T04:23:42.621Z,55.21
2024-05-09T04:26:14.216Z,55.95
2024-05-09T04:28:45.382Z,54.65
2024-05-09T04:31:13.457Z,55.84
2024-05-09T04:33:44.735Z,55.92
2024-05-09T04:36:13.023Z,55.68
2024-05-09T04:38:44.113Z,53.19
2024-05-09T04:41:15.015Z,52.01
2024-05-09T04:43:46.180Z,51.88
2024-05-09T04:46:15.555Z,51.80
2024-05-09T04:48:46.738Z,50.69
2024-05-09T04:51:15.417Z,51.22
2024-05-09T04:53:46.488Z,51.48
2024-05-09T04:56:17.214Z,51.93
2024-05-09T04:58:48.364Z,51.49
2024-05-09T05:01:17.968Z,51.51
2024-05-09T05:03:49.254Z,51.11
2024-05-09T05:06:17.539Z,50.26
2024-05-09T05:08:48.566Z,49.81
2024-05-09T05:11:19.390Z,49.56
2024-05-09T05:13:50.583Z,48.91
2024-05-09T05:16:18.671Z,49.09
2024-05-09T05:18:49.862Z,48.82
2024-05-09T05:21:18.122Z,49.14
2024-05-09T05:23:49.360Z,48.16
2024-05-09T05:26:20.743Z,46.66
2024-05-09T05:28:51.916Z,46.61
2024-05-09T05:31:20.273Z,45.86
2024-05-09T05:33:52.092Z,46.04
2024-05-09T05:36:20.279Z,45.62
2024-05-09T05:38:51.791Z,45.39
2024-05-09T05:41:22.537Z,45.68
2024-05-09T05:43:53.720Z,44.22
2024-05-09T05:46:22.005Z,44.55
2024-05-09T05:48:53.336Z,44.05
2024-05-09T05:51:21.576Z,43.21
2024-05-09T05:53:52.718Z,43.77
2024-05-09T05:56:23.508Z,43.40
2024-05-09T05:58:54.694Z,43.71
2024-05-09T06:01:22.948Z,42.88
2024-05-09T06:03:54.178Z,41.33
2024-05-09T06:09:51.945Z,42.37
2024-05-09T06:12:22.843Z,40.93
2024-05-09T06:14:54.006Z,40.54
2024-05-09T06:17:22.310Z,40.68
2024-05-09T06:19:53.849Z,39.40
2024-05-09T06:22:22.046Z,38.59
2024-05-09T06:24:53.259Z,39.03
2024-05-09T06:27:24.180Z,38.92
2024-05-09T06:29:55.224Z,38.86
2024-05-09T06:32:23.571Z,38.56
2024-05-09T06:34:54.793Z,37.48
2024-05-09T06:37:22.894Z,37.92
2024-05-09T06:39:53.966Z,38.25
2024-05-09T06:42:24.693Z,37.50
2024-05-09T06:44:55.846Z,36.45
2024-05-09T06:47:24.144Z,35.96
2024-05-09T06:49:55.458Z,36.86
2024-05-09T06:52:23.636Z,36.85
2024-05-09T06:54:55.406Z,36.09
2024-05-09T06:57:26.173Z,36.71
2024-05-09T06:59:59.924Z,35.01
2024-05-09T07:02:28.241Z,35.62
2024-05-09T07:04:59.487Z,35.60
2024-05-09T07:07:27.711Z,35.28
2024-05-09T07:09:58.780Z,35.69
2024-05-09T07:12:29.531Z,35.73
2024-05-09T07:15:00.725Z,33.99
2024-05-09T07:17:29.180Z,33.82
2024-05-09T07:20:02.406Z,35.13
2024-05-09T07:22:31.923Z,33.31
2024-05-09T07:25:06.304Z,32.34
2024-05-09T07:27:37.263Z,33.01
2024-05-09T07:30:13.577Z,32.19
2024-05-09T07:32:45.377Z,33.87
2024-05-09T07:35:16.716Z,32.77
2024-05-09T07:37:44.801Z,33.04
2024-05-09T07:40:24.983Z,32.83
2024-05-09T07:43:03.903Z,32.93
2024-05-09T07:53:37.856Z,32.30
2024-05-09T07:56:05.625Z,31.07
2024-05-09T07:58:39.214Z,30.63
2024-05-09T08:01:07.812Z,31.36
2024-05-09T08:03:38.768Z,31.50
2024-05-09T08:06:07.375Z,31.68
2024-05-09T08:08:38.040Z,31.08
2024-05-09T08:11:07.104Z,31.95
2024-05-09T08:13:40.504Z,30.86
2024-05-09T08:16:10.059Z,30.28
2024-05-09T08:18:41.128Z,31.38
2024-05-09T08:21:09.761Z,31.37
2024-05-09T08:23:40.651Z,31.76
2024-05-09T08:26:09.216Z,31.22
2024-05-09T08:28:42.591Z,31.09
2024-05-09T08:31:11.869Z,30.00
2024-05-09T08:33:48.226Z,30.89
2024-05-09T08:36:17.333Z,29.93
2024-05-09T08:38:48.404Z,30.62
2024-05-09T08:41:17.003Z,30.79
2024-05-09T08:43:50.469Z,30.53
2024-05-09T08:46:19.295Z,31.17
2024-05-09T08:48:52.881Z,30.40
2024-05-09T08:51:21.764Z,30.38
2024-05-09T08:53:52.550Z,30.39
2024-05-09T08:56:27.835Z,30.84
2024-05-09T08:59:05.045Z,31.08
2024-05-09T09:01:37.838Z,30.67
2024-05-09T09:04:11.062Z,31.34
2024-05-09T09:06:40.240Z,30.51
2024-05-09T09:09:13.616Z,30.95
2024-05-09T09:11:42.296Z,30.50
2024-05-09T09:14:15.698Z,30.02
2024-05-09T09:16:46.140Z,29.28
2024-05-09T09:19:17.096Z,29.39
2024-05-09T09:21:45.815Z,28.69
2024-05-09T09:24:17.200Z,29.53
2024-05-09T09:26:46.983Z,29.37
2024-05-09T09:29:24.679Z,29.51
2024-05-09T09:31:59.142Z,28.32
2024-05-09T09:34:31.711Z,28.50
2024-05-09T09:37:06.626Z,28.87
2024-05-09T09:39:39.997Z,28.94
2024-05-09T09:42:11.826Z,29.06
2024-05-09T09:44:54.468Z,28.33
2024-05-09T09:47:29.831Z,27.69
2024-05-09T09:50:04.181Z,27.73
2024-05-09T09:52:36.784Z,27.41
2024-05-09T09:55:09.653Z,27.95
2024-05-09T09:57:40.502Z,26.61
2024-05-09T10:00:24.589Z,26.51
2024-05-09T10:02:59.073Z,27.23
2024-05-09T10:05:31.035Z,25.76
2024-05-09T10:08:04.975Z,25.78
2024-05-09T10:10:37.475Z,25.38
2024-05-09T10:13:07.928Z,25.90
2024-05-09T10:15:56.787Z,26.32
2024-05-09T10:18:36.832Z,24.76
2024-05-09T10:21:19.181Z,25.76
2024-05-09T10:23:58.962Z,25.62
2024-05-09T10:26:37.013Z,24.48
2024-05-09T10:29:13.297Z,24.41
2024-05-09T10:31:48.948Z,23.90
2024-05-09T10:34:19.573Z,24.31
2024-05-09T10:36:55.576Z,24.02
2024-05-09T10:39:25.981Z,24.63
2024-05-09T10:41:56.751Z,25.96
2024-05-09T10:44:25.272Z,25.24
2024-05-09T10:46:58.880Z,24.67
2024-05-09T10:49:28.141Z,25.13
2024-05-09T10:51:58.956Z,24.60
2024-05-09T10:54:36.663Z,24.65
2024-05-09T10:57:08.657Z,25.08
2024-05-09T10:59:39.846Z,24.64
2024-05-09T11:02:15.087Z,25.52
2024-05-09T11:04:45.415Z,24.97
2024-05-09T11:07:18.691Z,25.72
2024-05-09T11:09:48.328Z,25.18
2024-05-09T11:12:21.323Z,26.24
2024-05-09T11:14:54.519Z,26.00
2024-05-09T11:17:27.926Z,25.99
2024-05-09T11:19:56.492Z,25.57
2024-05-09T11:22:33.946Z,25.51
2024-05-09T11:25:06.249Z,25.21
2024-05-09T11:27:37.159Z,27.14
2024-05-09T11:30:26.694Z,25.42
2024-05-09T11:33:05.015Z,24.72
2024-05-09T11:35:33.504Z,24.79
2024-05-09T11:38:04.129Z,24.48
2024-05-09T11:40:34.574Z,25.18
2024-05-09T11:43:05.542Z,23.80
2024-05-09T11:45:34.255Z,23.51
2024-05-09T11:48:08.600Z,23.73
2024-05-09T11:50:37.670Z,23.83
2024-05-09T11:53:09.086Z,24.04
2024-05-09T11:55:38.296Z,24.23
2024-05-09T11:58:09.775Z,24.87
2024-05-09T12:00:38.472Z,24.71
2024-05-09T12:03:11.995Z,26.30
2024-05-09T12:05:41.004Z,27.13
2024-05-09T12:08:12.208Z,27.25
2024-05-09T12:10:41.159Z,27.64
2024-05-09T12:13:12.039Z,27.22
2024-05-09T12:15:40.652Z,29.38
2024-05-09T12:18:14.526Z,28.24
2024-05-09T12:20:43.699Z,27.69
2024-05-09T12:23:14.395Z,27.91
2024-05-09T12:25:43.007Z,28.46
2024-05-09T12:28:14.035Z,28.54
2024-05-09T12:30:42.656Z,28.32
2024-05-09T12:33:16.641Z,27.67
2024-05-09T12:35:47.359Z,28.73
2024-05-09T12:38:20.919Z,29.00
2024-05-09T12:40:49.432Z,29.52
2024-05-09T12:43:20.629Z,29.43
2024-05-09T12:45:49.299Z,29.67
2024-05-09T12:48:22.837Z,28.83
2024-05-09T12:50:51.958Z,29.25
2024-05-09T12:53:22.682Z,28.85
2024-05-09T12:55:56.885Z,29.84
2024-05-09T12:58:30.933Z,28.79
2024-05-09T13:00:59.550Z,28.62
2024-05-09T13:03:33.169Z,28.77
2024-05-09T13:06:02.058Z,28.55
2024-05-09T13:08:32.912Z,29.54
2024-05-09T13:11:01.718Z,29.21
2024-05-09T13:13:32.367Z,28.29
2024-05-09T13:16:00.965Z,29.23
2024-05-09T13:18:36.609Z,29.12
2024-05-09T13:21:05.772Z,28.49
2024-05-09T13:23:38.040Z,30.35
2024-05-09T13:26:06.692Z,28.68
2024-05-09T13:28:37.647Z,28.83
2024-05-09T13:31:06.215Z,28.42
2024-05-09T13:33:39.799Z,28.34
2024-05-09T13:36:08.894Z,28.15
2024-05-09T13:38:39.853Z,28.00
2024-05-09T13:41:08.839Z,28.62
2024-05-09T13:43:39.498Z,28.87
2024-05-09T13:46:08.159Z,28.51
2024-05-09T13:48:42.346Z,28.50
2024-05-09T13:51:11.159Z,27.52
2024-05-09T13:53:41.803Z,28.18
2024-05-09T13:56:10.404Z,28.35
2024-05-09T13:58:42.341Z,28.77
2024-05-09T14:01:10.929Z,27.77
2024-05-09T14:03:44.404Z,27.33
2024-05-09T14:06:13.354Z,27.42
2024-05-09T14:08:44.168Z,28.22
2024-05-09T14:11:12.751Z,27.72
2024-05-09T14:13:43.611Z,28.82
2024-05-09T14:16:12.298Z,27.07
2024-05-09T14:18:45.876Z,27.90
2024-05-09T14:21:14.472Z,28.07
2024-05-09T14:23:45.194Z,27.91
2024-05-09T14:26:14.313Z,28.56
2024-05-09T14:28:45.217Z,28.77
2024-05-09T14:31:13.770Z,29.21
2024-05-09T14:33:47.292Z,28.65
2024-05-09T14:36:16.009Z,27.76
2024-05-09T14:38:47.747Z,29.40
2024-05-09T14:41:16.258Z,28.83
2024-05-09T14:43:46.980Z,28.74
2024-05-09T14:46:15.830Z,28.56
2024-05-09T14:48:49.409Z,29.26
2024-05-09T14:51:19.793Z,29.15
2024-05-09T14:53:50.543Z,27.64
2024-05-09T14:56:19.220Z,28.73
2024-05-09T14:58:49.904Z,28.08
2024-05-09T15:01:20.758Z,28.58
2024-05-09T15:03:54.673Z,28.55
2024-05-09T15:06:23.642Z,27.53
2024-05-09T15:08:59.899Z,28.48
2024-05-09T15:11:28.356Z,28.31
2024-05-09T15:13:59.141Z,28.67
2024-05-09T15:16:28.460Z,27.90
2024-05-09T15:19:02.196Z,28.73
2024-05-09T15:21:33.537Z,28.20
2024-05-09T15:24:01.731Z,29.33
2024-05-09T15:26:32.910Z,27.41
2024-05-09T15:29:00.979Z,28.06
2024-05-09T15:31:32.773Z,28.45
2024-05-09T15:34:03.778Z,29.03
2024-05-09T15:36:35.095Z,28.68
2024-05-09T15:39:03.374Z,28.08
2024-05-09T15:41:34.547Z,28.70
2024-05-09T15:44:02.618Z,27.79
2024-05-09T15:46:34.088Z,27.65
2024-05-09T15:49:05.018Z,28.51
2024-05-09T15:51:36.117Z,28.17
2024-05-09T15:54:04.322Z,27.98
2024-05-09T15:56:35.919Z,27.84
2024-05-09T15:59:04.153Z,27.24
2024-05-09T16:01:35.434Z,29.00
2024-05-09T16:04:06.555Z,27.61
2024-05-09T16:06:37.906Z,28.46
2024-05-09T16:09:06.640Z,28.68
2024-05-09T16:11:37.859Z,28.46
2024-05-09T16:14:05.982Z,27.46
2024-05-09T16:16:37.425Z,29.40
2024-05-09T16:19:09.943Z,28.27
2024-05-09T16:21:41.404Z,30.54
2024-05-09T16:24:09.510Z,29.98
2024-05-09T16:26:40.672Z,31.69
2024-05-09T16:29:09.284Z,30.36
2024-05-09T16:31:40.473Z,32.81
2024-05-09T16:34:11.563Z,29.71
2024-05-09T16:36:44.074Z,29.14
2024-05-09T16:39:12.238Z,29.63
2024-05-09T16:41:43.321Z,31.73
2024-05-09T16:44:11.356Z,33.74
2024-05-09T16:46:42.616Z,33.78
2024-05-09T16:49:13.654Z,34.22
2024-05-09T16:51:44.824Z,33.99
2024-05-09T16:54:12.908Z,31.67
2024-05-09T16:56:43.974Z,32.30
2024-05-09T16:59:12.167Z,32.12
2024-05-09T17:01:43.435Z,32.81
2024-05-09T17:04:14.434Z,32.43
2024-05-09T17:06:46.075Z,33.36
2024-05-09T17:09:15.738Z,34.04
2024-05-09T17:11:49.950Z,33.08
2024-05-09T17:14:20.795Z,32.51
2024-05-09T17:16:52.009Z,32.68
2024-05-09T17:19:26.021Z,34.65
2024-05-09T17:21:54.572Z,33.48
2024-05-09T17:24:25.322Z,33.10
2024-05-09T17:26:53.870Z,32.35
2024-05-09T17:29:24.947Z,32.44
2024-05-09T17:31:53.402Z,31.98
2024-05-09T17:34:27.819Z,32.61
2024-05-09T17:36:56.524Z,32.37
2024-05-09T17:39:27.177Z,32.55
2024-05-09T17:41:55.618Z,33.62
2024-05-09T17:44:27.170Z,33.47
2024-05-09T17:46:56.049Z,33.19
2024-05-09T17:49:29.599Z,33.57
2024-05-09T17:51:58.258Z,33.29
2024-05-09T17:54:28.982Z,33.30
2024-05-09T17:56:57.602Z,34.10
2024-05-09T17:59:29.440Z,33.62
2024-05-09T18:01:58.111Z,33.62
2024-05-09T18:04:33.457Z,34.28
2024-05-09T18:07:02.532Z,34.94
2024-05-09T18:09:33.297Z,35.41
2024-05-09T18:12:02.065Z,36.23
2024-05-09T18:14:32.866Z,36.48
2024-05-09T18:17:01.613Z,37.99
2024-05-09T18:19:35.217Z,38.64
2024-05-09T18:22:03.941Z,39.51
2024-05-09T18:24:34.755Z,40.26
2024-05-09T18:27:03.357Z,39.16
2024-05-09T18:29:34.402Z,40.62
2024-05-09T18:32:03.002Z,39.76
2024-05-09T18:34:36.383Z,39.86
2024-05-09T18:37:05.547Z,40.04
2024-05-09T18:39:36.608Z,40.15
2024-05-09T18:42:08.914Z,39.16
2024-05-09T18:44:36.998Z,40.03
2024-05-09T18:47:10.530Z,39.98
2024-05-09T18:49:41.435Z,40.69
2024-05-09T18:52:12.826Z,40.90
2024-05-09T18:54:41.192Z,40.60
2024-05-09T18:57:12.358Z,41.22
2024-05-09T18:59:40.385Z,42.26
2024-05-09T19:02:11.588Z,42.73
2024-05-09T19:04:42.537Z,42.65
2024-05-09T19:07:14.723Z,43.20
2024-05-09T19:09:43.032Z,43.44
2024-05-09T19:12:17.266Z,44.15
2024-05-09T19:14:45.357Z,44.66
2024-05-09T19:17:16.632Z,45.09
2024-05-09T19:19:48.976Z,45.51
2024-05-09T19:22:20.381Z,46.32
2024-05-09T19:24:48.631Z,46.48
2024-05-09T19:27:19.784Z,46.72
2024-05-09T19:29:47.835Z,46.30
2024-05-09T19:32:19.126Z,46.82
2024-05-09T19:34:49.864Z,47.06
2024-05-09T19:37:21.066Z,47.62
2024-05-09T19:39:49.164Z,47.76
2024-05-09T19:42:20.901Z,48.32
2024-05-09T19:44:49.051Z,48.08
2024-05-09T19:47:20.319Z,48.71
2024-05-09T19:49:51.530Z,48.94
2024-05-09T19:52:22.799Z,49.65
2024-05-09T19:54:50.860Z,49.38
2024-05-09T19:57:22.353Z,49.88
2024-05-09T19:59:50.521Z,50.42
2024-05-09T20:02:21.772Z,50.84
2024-05-09T20:04:52.617Z,50.81
2024-05-09T20:07:23.891Z,50.32
2024-05-09T20:09:51.992Z,49.54
2024-05-09T20:12:23.111Z,50.23
2024-05-09T20:14:51.185Z,50.59
2024-05-09T20:17:22.266Z,51.16
2024-05-09T20:19:53.180Z,51.99
2024-05-09T20:22:24.381Z,51.43
2024-05-09T20:24:52.535Z,51.02
2024-05-09T20:27:23.635Z,50.88
2024-05-09T20:29:51.668Z,52.31
2024-05-09T20:32:22.964Z,53.66
2024-05-09T20:34:53.731Z,52.83
2024-05-09T20:37:24.933Z,53.98
2024-05-09T20:39:53.084Z,52.88
2024-05-09T20:42:24.213Z,53.22
2024-05-09T20:44:52.440Z,52.88
2024-05-09T20:47:23.588Z,52.76
2024-05-09T20:49:54.468Z,52.75
2024-05-09T20:52:25.561Z,53.78
2024-05-09T20:54:53.706Z,54.62
2024-05-09T20:57:24.854Z,54.81
2024-05-09T20:59:52.990Z,54.90
2024-05-09T21:02:24.238Z,55.26
2024-05-09T21:04:55.495Z,55.03
2024-05-09T21:07:26.873Z,54.15
2024-05-09T21:09:55.195Z,55.52
2024-05-09T21:12:26.415Z,57.29
2024-05-09T21:14:54.917Z,55.83
2024-05-09T21:17:26.333Z,56.04
2024-05-09T21:19:57.082Z,57.35
2024-05-09T21:22:28.319Z,57.34
2024-05-09T21:24:56.434Z,57.29
2024-05-09T21:27:27.557Z,57.62
2024-05-09T21:29:55.577Z,58.72
2024-05-09T21:32:26.726Z,59.42
2024-05-09T21:34:57.598Z,60.04
2024-05-09T21:37:28.690Z,60.61
2024-05-09T21:39:56.876Z,61.00
2024-05-09T21:42:28.085Z,61.51
2024-05-09T21:44:56.201Z,61.30
2024-05-09T21:47:27.426Z,61.56
2024-05-09T21:49:58.284Z,62.06
2024-05-09T21:52:29.598Z,61.88
2024-05-09T21:54:57.896Z,62.19
2024-05-09T21:57:29.080Z,62.36
2024-05-09T21:59:57.222Z,62.98
2024-05-09T22:02:28.588Z,63.10
2024-05-09T22:04:59.921Z,63.70
2024-05-09T22:07:31.122Z,64.50
2024-05-09T22:09:59.313Z,64.06
2024-05-09T22:12:30.500Z,64.29
2024-05-09T22:14:58.671Z,64.47
2024-05-09T22:17:29.808Z,64.73
2024-05-09T22:20:00.501Z,64.57
2024-05-09T22:22:32.639Z,64.57
2024-05-09T22:25:01.226Z,64.90
2024-05-09T22:27:32.410Z,64.70
2024-05-09T22:30:00.512Z,64.90
2024-05-09T22:32:36.914Z,65.68
2024-05-09T22:35:11.287Z,65.42
2024-05-09T22:37:42.437Z,65.31
2024-05-09T22:40:15.120Z,66.11
2024-05-09T22:42:51.649Z,65.65
2024-05-09T22:45:19.779Z,65.19
2024-05-09T22:47:51.011Z,65.33
2024-05-09T22:50:26.827Z,65.68
2024-05-09T22:53:02.102Z,66.14
2024-05-09T22:55:30.554Z,65.71
2024-05-09T22:58:01.803Z,65.94
2024-05-09T23:00:32.206Z,65.52
2024-05-09T23:03:04.687Z,66.14
2024-05-09T23:05:35.615Z,66.37
2024-05-09T23:08:07.353Z,66.80
2024-05-09T23:10:37.718Z,67.10
2024-05-09T23:13:10.241Z,68.35
2024-05-09T23:15:38.798Z,68.40
2024-05-09T23:18:10.859Z,67.66
2024-05-09T23:20:41.724Z,68.16
2024-05-09T23:23:13.101Z,68.66
2024-05-09T23:25:42.185Z,68.67
2024-05-09T23:28:14.116Z,69.29
2024-05-09T23:30:42.596Z,68.58
2024-05-09T23:33:15.686Z,68.31
2024-05-09T23:35:46.700Z,68.49
2024-05-09T23:38:20.918Z,69.28
2024-05-09T23:40:50.498Z,69.48
2024-05-09T23:43:22.302Z,69.30
2024-05-09T23:45:50.495Z,69.36
2024-05-09T23:48:21.664Z,70.18
2024-05-09T23:50:52.346Z,70.15
2024-05-09T23:53:23.489Z,70.86
2024-05-09T23:55:51.538Z,71.23
2024-05-09T23:58:22.829Z,71.56
